Tacoma — WCX9244 — position and weather

sailwx.info

Track history (hours):
 
Tides and Currents Weather Stations Pressure Air Temp Water Temp Dewpoint Dewpoint Depression Visibility Wind Speed Wind Dir Waves Ship Positions

Tacoma

Owner: WASHINGTON, STATE OF; DOT, OLYMPIA, WA. More information available from US FCC via Universal Licensing System and Coast Guard Vessel Documentation Center.

Last reported at 2017-Nov-18 02:30 UTC. Time now 2017-Nov-18 03:00 UTC.
Position N 47°36' W 122°22'.

Length 148 m; draft 5.8 m.

Type: Passenger vessel. MMSI: 366772760.

Date/timePositionNaut miles runAvg speedWind from/ knotsBaromVisibWave heightAir tempDewpointWater temp
2017-Nov-18 02:30N 47°36' W 122°22'0 0.8
2017-Nov-18 02:01N 47°36' W 122°21'612.7
2017-Nov-18 01:30N 47°37' W 122°31'2 4.8
2017-Nov-18 01:01N 47°36' W 122°27'5 9.3
2017-Nov-18 00:30N 47°36' W 122°20'510.6
2017-Nov-18 00:00N 47°36' W 122°28'2 3.5
2017-Nov-17 23:30N 47°37' W 122°31'713.7
2017-Nov-17 23:00N 47°36' W 122°20'1 1.3
2017-Nov-17 22:30N 47°36' W 122°21'612.6
2017-Nov-17 22:00N 47°37' W 122°31'2 3.2
2017-Nov-17 21:30N 47°36' W 122°29'611.3
2017-Nov-17 21:00N 47°36' W 122°20'510.9
2017-Nov-17 20:31N 47°36' W 122°28'2 3.4
2017-Nov-17 20:00N 47°37' W 122°31'611.6
2017-Nov-17 19:30N 47°36' W 122°22'1 2.2
2017-Nov-17 19:00N 47°36' W 122°20'612.5
2017-Nov-17 18:30N 47°37' W 122°29'1 1.5
2017-Nov-17 18:01N 47°37' W 122°30'713.0
2017-Nov-17 17:30N 47°36' W 122°20'3 5.9
2017-Nov-17 17:00N 47°36' W 122°25'4 8.1
2017-Nov-17 16:30N 47°37' W 122°31'611.4
2017-Nov-17 16:00N 47°36' W 122°22'1 2.3
2017-Nov-17 15:30N 47°36' W 122°21'713.7
2017-Nov-17 15:00N 47°37' W 122°31'2 4.7
2017-Nov-17 14:30N 47°36' W 122°28'5 9.8
2017-Nov-17 14:00N 47°36' W 122°20'510.1
2017-Nov-17 13:30N 47°37' W 122°28'2 4.0
2017-Nov-17 13:00N 47°37' W 122°31'0 0.0
2017-Nov-17 12:30N 47°37' W 122°31'0 0.0
2017-Nov-17 12:00N 47°37' W 122°31'0 0.0
2017-Nov-17 11:30N 47°37' W 122°31'0 0.0
2017-Nov-17 11:00N 47°37' W 122°31'0 0.0
2017-Nov-17 10:30N 47°37' W 122°31'0 0.0
2017-Nov-17 10:00N 47°37' W 122°31'0 0.0
2017-Nov-17 09:30N 47°37' W 122°31'0 0.0
2017-Nov-17 09:00N 47°37' W 122°31'0 0.0
2017-Nov-17 08:30N 47°37' W 122°31'0 0.0
2017-Nov-17 08:00N 47°37' W 122°31'0 0.0
2017-Nov-17 07:30N 47°37' W 122°31'0 0.0
2017-Nov-17 07:00N 47°37' W 122°31'0 0.2
2017-Nov-17 06:30N 47°37' W 122°30'713.6
2017-Nov-17 06:00N 47°36' W 122°20'0 0.0
2017-Nov-17 05:30N 47°36' W 122°20'612.5
2017-Nov-17 05:00N 47°37' W 122°30'0 0.9
2017-Nov-17 04:31N 47°36' W 122°29'612.1
2017-Nov-17 04:00N 47°36' W 122°20'2 3.7
2017-Nov-17 03:30N 47°37' W 122°23'510.3
2017-Nov-17 03:00N 47°37' W 122°31'611.6
2017-Nov-17 02:31N 47°36' W 122°22'1 2.2
2017-Nov-17 02:00N 47°36' W 122°21'713.8
2017-Nov-17 01:30N 47°37' W 122°31'3 5.4
2017-Nov-17 01:01N 47°36' W 122°27'4 8.6
2017-Nov-17 00:30N 47°36' W 122°20'510.7
2017-Nov-17 00:00N 47°37' W 122°28'2 3.6
2017-Nov-16 23:30N 47°37' W 122°31'713.8
2017-Nov-16 23:00N 47°36' W 122°21'0 0.5
2017-Nov-16 22:30N 47°36' W 122°21'713.2
2017-Nov-16 22:00N 47°37' W 122°31'2 3.6
2017-Nov-16 21:30N 47°36' W 122°28'510.9
2017-Nov-16 21:01N 47°36' W 122°20'510.5
2017-Nov-16 20:31N 47°36' W 122°28'2 3.6
2017-Nov-16 20:00N 47°37' W 122°31'611.2
2017-Nov-16 19:30N 47°36' W 122°22'1 2.8
2017-Nov-16 19:01N 47°36' W 122°20'612.4
2017-Nov-16 18:30N 47°37' W 122°30'0 0.7
2017-Nov-16 18:01N 47°37' W 122°30'612.8
2017-Nov-16 17:31N 47°36' W 122°20'4 7.7
2017-Nov-16 17:00N 47°37' W 122°26'3 6.2
2017-Nov-16 16:30N 47°37' W 122°31'611.4
2017-Nov-16 16:00N 47°36' W 122°22'1 1.3
2017-Nov-16 15:30N 47°36' W 122°21'612.7
2017-Nov-16 15:01N 47°37' W 122°31'2 4.8
2017-Nov-16 14:30N 47°36' W 122°27'5 9.5
2017-Nov-16 14:00N 47°36' W 122°20'5 9.9
2017-Nov-16 13:30N 47°36' W 122°28'2 4.5
2017-Nov-16 13:00N 47°37' W 122°31'0 0.0
2017-Nov-16 12:30N 47°37' W 122°31'0 0.0
2017-Nov-16 12:00N 47°37' W 122°31'0 0.0
2017-Nov-16 11:30N 47°37' W 122°31'0 0.0
2017-Nov-16 11:00N 47°37' W 122°31'0 0.0
2017-Nov-16 10:30N 47°37' W 122°31'2 3.8
2017-Nov-16 10:00N 47°36' W 122°28'510.3
2017-Nov-16 09:30N 47°36' W 122°21'713.3
2017-Nov-16 09:00N 47°37' W 122°31'4 8.3
2017-Nov-16 08:30N 47°36' W 122°25'0 0.9
2017-Nov-16 08:01N 47°36' W 122°24'5 9.2
2017-Nov-16 07:30N 47°37' W 122°31'0 0.0
2017-Nov-16 07:00N 47°37' W 122°31'1 1.3
2017-Nov-16 06:31N 47°37' W 122°30'612.7
2017-Nov-16 06:00N 47°36' W 122°20'1 1.0
2017-Nov-16 05:30N 47°36' W 122°21'612.9
2017-Nov-16 05:01N 47°37' W 122°31'510.3
2017-Nov-16 04:31N 47°36' W 122°23'0 1.0
2017-Nov-16 04:01N 47°36' W 122°22'611.1
2017-Nov-16 03:31N 47°37' W 122°31'3 6.6
2017-Nov-16 03:01N 47°36' W 122°26'4 7.4
2017-Nov-16 02:30N 47°36' W 122°20'611.2
2017-Nov-16 02:00N 47°36' W 122°29'2 3.1
2017-Nov-16 01:30N 47°37' W 122°31'713.2
2017-Nov-16 01:00N 47°36' W 122°21'0 0.7
2017-Nov-16 00:30N 47°36' W 122°20'612.2
2017-Nov-16 00:01N 47°36' W 122°29'1 1.3
2017-Nov-15 23:31N 47°37' W 122°30'612.7
2017-Nov-15 23:00N 47°36' W 122°20'3 6.0
2017-Nov-15 22:31N 47°37' W 122°25'4 7.8
2017-Nov-15 22:00N 47°37' W 122°31'2 3.8
2017-Nov-15 21:30N 47°36' W 122°28'510.4
2017-Nov-15 21:00N 47°36' W 122°20'510.9
2017-Nov-15 20:30N 47°36' W 122°28'2 3.3
2017-Nov-15 20:00N 47°37' W 122°31'611.5
2017-Nov-15 19:31N 47°36' W 122°22'1 2.4
2017-Nov-15 19:00N 47°36' W 122°20'713.1
2017-Nov-15 18:30N 47°37' W 122°30'1 2.9
2017-Nov-15 18:00N 47°36' W 122°28'510.6
2017-Nov-15 17:30N 47°36' W 122°20'612.3
2017-Nov-15 17:00N 47°37' W 122°29'1 1.9
2017-Nov-15 16:30N 47°37' W 122°30'713.4
2017-Nov-15 16:00N 47°36' W 122°20'2 3.2
2017-Nov-15 15:31N 47°36' W 122°23'510.6
2017-Nov-15 15:00N 47°37' W 122°31'2 4.1
2017-Nov-15 14:30N 47°36' W 122°28'510.1
2017-Nov-15 14:01N 47°36' W 122°20'611.7
2017-Nov-15 13:31N 47°36' W 122°29'1 2.8
2017-Nov-15 13:00N 47°37' W 122°31'0 0.0
2017-Nov-15 12:30N 47°37' W 122°31'0 0.0
2017-Nov-15 12:00N 47°37' W 122°31'0 0.0
2017-Nov-15 11:31N 47°37' W 122°31'0 0.0
2017-Nov-15 11:00N 47°37' W 122°31'0 0.0
2017-Nov-15 10:31N 47°37' W 122°31'0 0.8
2017-Nov-15 10:01N 47°37' W 122°30'713.0
2017-Nov-15 09:30N 47°36' W 122°20'612.7
2017-Nov-15 09:01N 47°37' W 122°30'2 4.0
2017-Nov-15 08:30N 47°36' W 122°27'4 8.6
2017-Nov-15 08:00N 47°36' W 122°21'713.5
2017-Nov-15 07:30N 47°37' W 122°31'510.9
2017-Nov-15 07:01N 47°36' W 122°23'1 3.0
2017-Nov-15 06:30N 47°36' W 122°20'4 8.2
2017-Nov-15 06:01N 47°36' W 122°26'3 5.7
2017-Nov-15 05:30N 47°37' W 122°31'713.8
2017-Nov-15 05:00N 47°36' W 122°20'2 3.9
2017-Nov-15 04:31N 47°36' W 122°23'5 9.8
2017-Nov-15 04:00N 47°37' W 122°31'4 9.0
2017-Nov-15 03:30N 47°36' W 122°24'2 4.9
2017-Nov-15 03:00N 47°36' W 122°20'713.8
2017-Nov-15 02:31N 47°37' W 122°30'0 0.8
2017-Nov-15 02:01N 47°37' W 122°30'612.9
2017-Nov-15 01:30N 47°36' W 122°20'1 1.9
2017-Nov-15 01:00N 47°36' W 122°22'612.0
2017-Nov-15 00:30N 47°37' W 122°31'3 6.5
2017-Nov-15 00:00N 47°36' W 122°26'4 7.6
2017-Nov-14 23:30N 47°36' W 122°20'612.4
2017-Nov-14 23:00N 47°37' W 122°30'0 0.8
2017-Nov-14 22:30N 47°37' W 122°30'612.6
2017-Nov-14 22:00N 47°36' W 122°20'3 5.3
2017-Nov-14 21:31N 47°37' W 122°24'4 8.5
2017-Nov-14 21:00N 47°37' W 122°31'4 8.8
2017-Nov-14 20:30N 47°36' W 122°24'3 5.2
2017-Nov-14 20:00N 47°36' W 122°20'713.9
2017-Nov-14 19:30N 47°37' W 122°30'1 2.1
2017-Nov-14 19:01N 47°37' W 122°29'612.2
2017-Nov-14 18:30N 47°36' W 122°20'2 3.4
2017-Nov-14 18:00N 47°36' W 122°23'510.5
2017-Nov-14 17:31N 47°37' W 122°31'3 5.1
2017-Nov-14 17:01N 47°36' W 122°27'5 9.1
2017-Nov-14 16:31N 47°36' W 122°20'612.7
2017-Nov-14 16:01N 47°37' W 122°30'0 0.1
2017-Nov-14 15:31N 47°37' W 122°30'612.2
2017-Nov-14 15:00N 47°36' W 122°20'611.6
2017-Nov-14 14:30N 47°36' W 122°29'2 3.1
2017-Nov-14 14:00N 47°37' W 122°31'713.8
2017-Nov-14 13:31N 47°36' W 122°21'4 7.7
2017-Nov-14 13:01N 47°37' W 122°26'3 6.0
2017-Nov-14 12:31N 47°37' W 122°31'0 0.0
2017-Nov-14 12:00N 47°37' W 122°31'0 0.0
2017-Nov-14 11:30N 47°37' W 122°31'0 0.0
2017-Nov-14 11:00N 47°37' W 122°31'0 0.0
2017-Nov-14 10:30N 47°37' W 122°31'3 6.3
2017-Nov-14 10:00N 47°36' W 122°26'2 4.0
2017-Nov-14 09:30N 47°36' W 122°23'510.0
2017-Nov-14 09:00N 47°37' W 122°31'3 6.9
2017-Nov-14 08:30N 47°36' W 122°26'2 3.9
2017-Nov-14 08:01N 47°36' W 122°23'510.5
2017-Nov-14 07:31N 47°37' W 122°31'611.7
2017-Nov-14 07:01N 47°36' W 122°22'1 2.2
2017-Nov-14 06:30N 47°36' W 122°20'5 9.6
2017-Nov-14 06:01N 47°37' W 122°27'2 4.4
2017-Nov-14 05:30N 47°37' W 122°30'713.6
2017-Nov-14 05:00N 47°36' W 122°20'3 6.0
2017-Nov-14 04:30N 47°37' W 122°25'4 7.9
2017-Nov-14 04:01N 47°37' W 122°31'4 8.9
2017-Nov-14 03:30N 47°36' W 122°24'2 4.9
2017-Nov-14 03:00N 47°36' W 122°21'713.5
2017-Nov-14 02:31N 47°37' W 122°30'1 1.4
2017-Nov-14 02:00N 47°37' W 122°30'612.5
2017-Nov-14 01:30N 47°36' W 122°20'2 3.1
2017-Nov-14 01:01N 47°37' W 122°23'510.8
2017-Nov-14 00:31N 47°37' W 122°31'3 7.0
2017-Nov-14 00:01N 47°36' W 122°26'4 6.9
2017-Nov-13 23:30N 47°36' W 122°20'612.5
2017-Nov-13 23:00N 47°37' W 122°29'1 1.6
2017-Nov-13 22:31N 47°37' W 122°30'713.0
2017-Nov-13 22:00N 47°36' W 122°20'5 0.2
2017-Nov-13 02:00N 47°36' W 122°28'510.0
2017-Nov-13 01:31N 47°36' W 122°20'2 4.2
2017-Nov-13 01:00N 47°37' W 122°23'5 9.6
2017-Nov-13 00:30N 47°37' W 122°31'3 6.9
2017-Nov-13 00:00N 47°36' W 122°26'4 7.1
2017-Nov-12 23:30N 47°36' W 122°20'613.0
2017-Nov-12 23:01N 47°37' W 122°30'0 0.6
2017-Nov-12 22:31N 47°37' W 122°30'713.2
2017-Nov-12 22:00N 47°36' W 122°20'3 5.1
2017-Nov-12 21:30N 47°36' W 122°24'4 8.8
2017-Nov-12 21:00N 47°37' W 122°31'4 8.6
2017-Nov-12 20:30N 47°36' W 122°24'3 5.4
2017-Nov-12 20:00N 47°36' W 122°20'713.5
2017-Nov-12 19:30N 47°37' W 122°30'1 1.2
2017-Nov-12 19:01N 47°37' W 122°30'612.5
2017-Nov-12 18:30N 47°36' W 122°20'4 8.5
2017-Nov-12 18:00N 47°37' W 122°27'3 5.5
2017-Nov-12 17:30N 47°37' W 122°31'511.0
2017-Nov-12 17:00N 47°36' W 122°23'1 2.5
2017-Nov-12 16:30N 47°35' W 122°21'0 0.1
2017-Nov-12 16:00N 47°35' W 122°21'0 0.0
2017-Nov-12 15:30N 47°35' W 122°21'0 0.0
2017-Nov-12 15:00N 47°35' W 122°21'1 2.3
2017-Nov-12 14:30N 47°36' W 122°21'713.2
2017-Nov-12 14:01N 47°37' W 122°31'0 0.0
2017-Nov-12 13:31N 47°37' W 122°31'0 0.0
2017-Nov-12 13:01N 47°37' W 122°31'0 0.0
2017-Nov-12 12:31N 47°37' W 122°31'0 0.0
2017-Nov-12 12:00N 47°37' W 122°31'0 0.0
2017-Nov-12 11:30N 47°37' W 122°31'0 0.0
2017-Nov-12 11:01N 47°37' W 122°31'0 0.0
2017-Nov-12 10:31N 47°37' W 122°31'0 0.0
2017-Nov-12 10:00N 47°37' W 122°31'0 0.0
2017-Nov-12 09:31N 47°37' W 122°31'0 0.0
2017-Nov-12 09:01N 47°37' W 122°31'0 0.0
2017-Nov-12 08:31N 47°37' W 122°31'0 0.0
2017-Nov-12 08:01N 47°37' W 122°31'0 0.0
2017-Nov-12 07:31N 47°37' W 122°31'2 3.3
2017-Nov-12 07:00N 47°36' W 122°29'610.8
2017-Nov-12 06:30N 47°36' W 122°20'4 8.9
2017-Nov-12 06:01N 47°37' W 122°27'3 5.2
2017-Nov-12 05:31N 47°37' W 122°31'713.7
2017-Nov-12 05:00N 47°36' W 122°21'1 1.4
2017-Nov-12 04:31N 47°36' W 122°22'612.3
2017-Nov-12 04:01N 47°37' W 122°31'4 8.6
2017-Nov-12 03:31N 47°36' W 122°24'3 5.2
2017-Nov-12 03:00N 47°36' W 122°21'713.6
2017-Nov-12 02:30N 47°37' W 122°30'1 2.4
2017-Nov-12 02:01N 47°36' W 122°29'611.9
2017-Nov-12 01:30N 47°36' W 122°20'3 6.5
2017-Nov-12 01:01N 47°37' W 122°25'4 7.4
2017-Nov-12 00:30N 47°37' W 122°31'510.5
2017-Nov-12 00:00N 47°36' W 122°23'1 2.3
2017-Nov-11 23:30N 47°36' W 122°21'612.7
2017-Nov-11 23:00N 47°37' W 122°31'3 5.4
2017-Nov-11 22:31N 47°36' W 122°27'4 8.6
2017-Nov-11 22:00N 47°36' W 122°20'510.2
2017-Nov-11 21:31N 47°37' W 122°28'2 3.8
2017-Nov-11 21:00N 47°37' W 122°31'511.0
2017-Nov-11 20:30N 47°36' W 122°23'1 2.5
2017-Nov-11 20:00N 47°36' W 122°21'713.5
2017-Nov-11 19:31N 47°37' W 122°31'1 2.9
2017-Nov-11 19:01N 47°36' W 122°29'611.6
2017-Nov-11 18:30N 47°36' W 122°20'5 9.0
2017-Nov-11 18:00N 47°37' W 122°27'2 5.0
2017-Nov-11 17:30N 47°37' W 122°31'510.9
2017-Nov-11 17:00N 47°36' W 122°23'1 3.0
2017-Nov-11 16:30N 47°36' W 122°20'612.4
2017-Nov-11 16:01N 47°37' W 122°30'1 2.0
2017-Nov-11 15:30N 47°37' W 122°31'0 0.0
2017-Nov-11 15:00N 47°37' W 122°31'0 0.0
2017-Nov-11 14:30N 47°37' W 122°31'0 0.0
2017-Nov-11 14:00N 47°37' W 122°31'0 0.0
2017-Nov-11 13:30N 47°37' W 122°31'0 0.0
2017-Nov-11 13:00N 47°37' W 122°31'0 0.0
2017-Nov-11 12:30N 47°37' W 122°31'0 0.0
2017-Nov-11 12:00N 47°37' W 122°31'0 0.0
2017-Nov-11 11:30N 47°37' W 122°31'0 0.0
2017-Nov-11 11:00N 47°37' W 122°31'0 0.0
2017-Nov-11 10:30N 47°37' W 122°31'3 5.3
2017-Nov-11 10:01N 47°36' W 122°27'4 8.2
2017-Nov-11 09:30N 47°36' W 122°21'713.1
2017-Nov-11 09:00N 47°37' W 122°31'4 8.9
2017-Nov-11 08:30N 47°36' W 122°24'1 1.2
2017-Nov-11 08:00N 47°36' W 122°23'510.1
2017-Nov-11 07:30N 47°37' W 122°31'612.0
2017-Nov-11 07:01N 47°36' W 122°22'1 1.9
2017-Nov-11 06:30N 47°36' W 122°20'510.2
2017-Nov-11 06:01N 47°37' W 122°28'2 3.0
2017-Nov-11 05:31N 47°37' W 122°30'612.7
2017-Nov-11 05:00N 47°36' W 122°20'5 9.9
2017-Nov-11 04:31N 47°36' W 122°28'2 4.0
2017-Nov-11 04:00N 47°37' W 122°30'713.2
2017-Nov-11 03:30N 47°36' W 122°20'2 4.4
2017-Nov-11 03:00N 47°36' W 122°24'5 9.5
2017-Nov-11 02:30N 47°37' W 122°31'2 3.9
2017-Nov-11 02:00N 47°36' W 122°28'510.4
2017-Nov-11 01:30N 47°36' W 122°20'3 6.5
2017-Nov-11 01:00N 47°36' W 122°25'4 7.4
2017-Nov-11 00:30N 47°37' W 122°31'510.3
2017-Nov-11 00:00N 47°36' W 122°23'2 3.6
2017-Nov-10 23:30N 47°36' W 122°20'713.9
2017-Nov-10 23:00N 47°37' W 122°31'1 2.9
2017-Nov-10 22:31N 47°36' W 122°29'611.6
2017-Nov-10 22:00N 47°36' W 122°20'5 9.4
2017-Nov-10 21:30N 47°36' W 122°27'2 4.6
2017-Nov-10 21:00N 47°37' W 122°30'713.5
2017-Nov-10 20:30N 47°36' W 122°21'1 2.2
2017-Nov-10 20:00N 47°36' W 122°22'611.4
2017-Nov-10 19:31N 47°37' W 122°31'2 4.4
2017-Nov-10 19:01N 47°36' W 122°28'5 9.9
2017-Nov-10 18:31N 47°36' W 122°20'3 5.1
2017-Nov-10 18:01N 47°37' W 122°24'4 8.8
2017-Nov-10 17:30N 47°37' W 122°31'2 4.9
2017-Nov-10 17:01N 47°36' W 122°27'5 9.4
2017-Nov-10 16:30N 47°36' W 122°20'612.3
2017-Nov-10 16:00N 47°37' W 122°30'0 0.2
2017-Nov-10 15:30N 47°37' W 122°30'612.5
2017-Nov-10 15:01N 47°36' W 122°20'510.4
2017-Nov-10 14:30N 47°36' W 122°28'2 3.7
2017-Nov-10 14:00N 47°37' W 122°31'713.7
2017-Nov-10 13:30N 47°36' W 122°21'3 7.0
2017-Nov-10 13:01N 47°36' W 122°26'3 6.7
2017-Nov-10 12:30N 47°37' W 122°31'0 0.0
2017-Nov-10 12:01N 47°37' W 122°31'0 0.0
2017-Nov-10 11:31N 47°37' W 122°31'0 0.0
2017-Nov-10 11:01N 47°37' W 122°31'0 0.0
2017-Nov-10 10:31N 47°37' W 122°31'1 2.4
2017-Nov-10 10:01N 47°36' W 122°29'612.0
2017-Nov-10 09:30N 47°36' W 122°20'713.4
2017-Nov-10 09:00N 47°37' W 122°30'3 6.2
2017-Nov-10 08:30N 47°36' W 122°26'3 5.0
2017-Nov-10 08:00N 47°36' W 122°22'611.4
2017-Nov-10 07:30N 47°37' W 122°31'611.2
2017-Nov-10 07:01N 47°36' W 122°22'1 2.7
2017-Nov-10 06:30N 47°36' W 122°20'4 7.4
2017-Nov-10 06:01N 47°37' W 122°26'3 6.4
2017-Nov-10 05:30N 47°37' W 122°30'713.5
2017-Nov-10 05:00N 47°36' W 122°21'3 6.2
2017-Nov-10 04:31N 47°37' W 122°25'4 7.5
2017-Nov-10 04:01N 47°37' W 122°31'611.2
2017-Nov-10 03:30N 47°36' W 122°22'1 2.5
2017-Nov-10 03:00N 47°36' W 122°20'713.7
2017-Nov-10 02:30N 47°37' W 122°30'0 0.1
2017-Nov-10 02:00N 47°37' W 122°30'713.7
2017-Nov-10 01:30N 47°36' W 122°20'1 1.8
2017-Nov-10 01:01N 47°36' W 122°22'612.0
2017-Nov-10 00:30N 47°37' W 122°31'3 7.0
2017-Nov-10 00:00N 47°36' W 122°26'4 7.1
2017-Nov-09 23:30N 47°36' W 122°20'612.4
2017-Nov-09 23:00N 47°37' W 122°30'1 1.3
2017-Nov-09 22:31N 47°37' W 122°30'713.0
2017-Nov-09 22:00N 47°36' W 122°20'2 4.8
2017-Nov-09 21:30N 47°36' W 122°24'5 9.2
2017-Nov-09 21:01N 47°37' W 122°31'713.2
2017-Nov-09 20:30N 47°36' W 122°21'1 2.6
2017-Nov-09 20:00N 47°36' W 122°23'510.5
2017-Nov-09 19:30N 47°37' W 122°31'0 0.0
2017-Nov-09 19:00N 47°37' W 122°31'0 0.0
2017-Nov-09 18:30N 47°37' W 122°31'0 0.0
2017-Nov-09 18:00N 47°37' W 122°31'0 0.0
2017-Nov-09 17:31N 47°37' W 122°31'0 0.0
2017-Nov-09 17:00N 47°37' W 122°31'0 0.0
2017-Nov-09 16:30N 47°37' W 122°31'0 0.0
2017-Nov-09 16:00N 47°37' W 122°31'0 0.0
2017-Nov-09 15:30N 47°37' W 122°31'0 0.0
2017-Nov-09 15:00N 47°37' W 122°31'0 0.0
2017-Nov-09 14:30N 47°37' W 122°31'0 0.0
2017-Nov-09 14:00N 47°37' W 122°31'0 0.0
2017-Nov-09 13:30N 47°37' W 122°31'0 0.0
2017-Nov-09 13:00N 47°37' W 122°31'2 4.2
2017-Nov-09 12:31N 47°36' W 122°28'2 4.1
2017-Nov-09 12:00N 47°37' W 122°31'0 0.0
2017-Nov-09 11:31N 47°37' W 122°31'0 0.0
2017-Nov-09 11:00N 47°37' W 122°31'0 0.0
2017-Nov-09 10:30N 47°37' W 122°31'0 0.0
2017-Nov-09 10:01N 47°37' W 122°31'0 0.0
2017-Nov-09 09:30N 47°37' W 122°31'0 0.0
2017-Nov-09 09:01N 47°37' W 122°31'0 0.0
2017-Nov-09 08:31N 47°37' W 122°31'0 0.0
2017-Nov-09 08:01N 47°37' W 122°31'0 0.0
2017-Nov-09 07:30N 47°37' W 122°31'0 0.0
2017-Nov-09 07:01N 47°37' W 122°31'0 0.0
2017-Nov-09 06:30N 47°37' W 122°31'0 0.0
2017-Nov-09 06:01N 47°37' W 122°31'0 0.0
2017-Nov-09 05:30N 47°37' W 122°31'0 0.0
2017-Nov-09 05:01N 47°37' W 122°31'0 0.0
2017-Nov-09 04:31N 47°37' W 122°31'0 0.0
2017-Nov-09 04:01N 47°37' W 122°31'0 0.0
2017-Nov-09 03:31N 47°37' W 122°31'0 0.0
2017-Nov-09 03:01N 47°37' W 122°31'0 0.0
2017-Nov-09 02:31N 47°37' W 122°31'0 0.0
2017-Nov-09 02:00N 47°37' W 122°31'0 0.0
2017-Nov-09 01:30N 47°37' W 122°31'0 0.0
2017-Nov-09 01:01N 47°37' W 122°31'0 0.0
2017-Nov-09 00:30N 47°37' W 122°31'0 0.0
2017-Nov-09 00:00N 47°37' W 122°31'0 0.0
2017-Nov-08 23:30N 47°37' W 122°31'0 0.0
2017-Nov-08 23:01N 47°37' W 122°31'0 0.0
2017-Nov-08 22:31N 47°37' W 122°31'0 0.0
2017-Nov-08 22:00N 47°37' W 122°31'0 0.0
2017-Nov-08 21:30N 47°37' W 122°31'0 0.0
2017-Nov-08 21:00N 47°37' W 122°31'0 0.0
2017-Nov-08 20:31N 47°37' W 122°31'0 0.0
2017-Nov-08 20:00N 47°37' W 122°31'0 0.0
2017-Nov-08 19:31N 47°37' W 122°31'0 0.0
2017-Nov-08 19:00N 47°37' W 122°31'0 0.0
2017-Nov-08 18:30N 47°37' W 122°31'0 0.0
2017-Nov-08 18:01N 47°37' W 122°31'0 0.0
2017-Nov-08 17:30N 47°37' W 122°31'0 0.0
2017-Nov-08 17:01N 47°37' W 122°31'0 0.0
2017-Nov-08 16:31N 47°37' W 122°31'0 0.0
2017-Nov-08 16:01N 47°37' W 122°31'0 0.0
2017-Nov-08 15:30N 47°37' W 122°31'0 0.0
2017-Nov-08 15:01N 47°37' W 122°31'0 0.0
2017-Nov-08 14:31N 47°37' W 122°31'0 0.0
2017-Nov-08 14:01N 47°37' W 122°31'0 0.0
2017-Nov-08 13:30N 47°37' W 122°31'0 0.0
2017-Nov-08 13:01N 47°37' W 122°31'0 0.0
2017-Nov-08 12:31N 47°37' W 122°31'0 0.0
2017-Nov-08 12:00N 47°37' W 122°31'0 0.0
2017-Nov-08 11:31N 47°37' W 122°31'0 0.0
2017-Nov-08 11:01N 47°37' W 122°31'0 0.0
2017-Nov-08 10:30N 47°37' W 122°31'0 0.0
2017-Nov-08 10:01N 47°37' W 122°31'0 0.0
2017-Nov-08 09:30N 47°37' W 122°31'0 0.0
2017-Nov-08 09:01N 47°37' W 122°31'0 0.0
2017-Nov-08 08:30N 47°37' W 122°31'0 0.0
2017-Nov-08 08:01N 47°37' W 122°31'0 0.0
2017-Nov-08 07:31N 47°37' W 122°31'0 0.0
2017-Nov-08 07:01N 47°37' W 122°31'0 0.0
2017-Nov-08 06:31N 47°37' W 122°31'0 0.0
2017-Nov-08 06:01N 47°37' W 122°31'0 0.0
2017-Nov-08 05:31N 47°37' W 122°31'0 0.0
2017-Nov-08 05:00N 47°37' W 122°31'0 0.0
2017-Nov-08 04:30N 47°37' W 122°31'0 0.0
2017-Nov-08 04:01N 47°37' W 122°31'0 0.0
2017-Nov-08 03:31N 47°37' W 122°31'0 0.0
2017-Nov-08 03:00N 47°37' W 122°31'  
Track history (hours):
 
Tides and Currents Weather Stations Pressure Air Temp Water Temp Dewpoint Dewpoint Depression Visibility Wind Speed Wind Dir Waves Ship Positions

Tacoma

Owner: WASHINGTON, STATE OF; DOT, OLYMPIA, WA. More information available from US FCC via Universal Licensing System and Coast Guard Vessel Documentation Center.

Last reported at 2017-Nov-18 02:30 UTC. Time now 2017-Nov-18 03:00 UTC.
Position N 47°36' W 122°22'.

Length 148 m; draft 5.8 m.

Type: Passenger vessel. MMSI: 366772760.

Date/timePositionNaut miles runAvg speedWind from/ knotsBaromVisibWave heightAir tempDewpointWater temp
2017-Nov-18 02:30N 47°36' W 122°22'0 0.8
2017-Nov-18 02:01N 47°36' W 122°21'612.7
2017-Nov-18 01:30N 47°37' W 122°31'2 4.8
2017-Nov-18 01:01N 47°36' W 122°27'5 9.3
2017-Nov-18 00:30N 47°36' W 122°20'510.6
2017-Nov-18 00:00N 47°36' W 122°28'2 3.5
2017-Nov-17 23:30N 47°37' W 122°31'713.7
2017-Nov-17 23:00N 47°36' W 122°20'1 1.3
2017-Nov-17 22:30N 47°36' W 122°21'612.6
2017-Nov-17 22:00N 47°37' W 122°31'2 3.2
2017-Nov-17 21:30N 47°36' W 122°29'611.3
2017-Nov-17 21:00N 47°36' W 122°20'510.9
2017-Nov-17 20:31N 47°36' W 122°28'2 3.4
2017-Nov-17 20:00N 47°37' W 122°31'611.6
2017-Nov-17 19:30N 47°36' W 122°22'1 2.2
2017-Nov-17 19:00N 47°36' W 122°20'612.5
2017-Nov-17 18:30N 47°37' W 122°29'1 1.5
2017-Nov-17 18:01N 47°37' W 122°30'713.0
2017-Nov-17 17:30N 47°36' W 122°20'3 5.9
2017-Nov-17 17:00N 47°36' W 122°25'4 8.1
2017-Nov-17 16:30N 47°37' W 122°31'611.4
2017-Nov-17 16:00N 47°36' W 122°22'1 2.3
2017-Nov-17 15:30N 47°36' W 122°21'713.7
2017-Nov-17 15:00N 47°37' W 122°31'2 4.7
2017-Nov-17 14:30N 47°36' W 122°28'5 9.8
2017-Nov-17 14:00N 47°36' W 122°20'510.1
2017-Nov-17 13:30N 47°37' W 122°28'2 4.0
2017-Nov-17 13:00N 47°37' W 122°31'0 0.0
2017-Nov-17 12:30N 47°37' W 122°31'0 0.0
2017-Nov-17 12:00N 47°37' W 122°31'0 0.0
2017-Nov-17 11:30N 47°37' W 122°31'0 0.0
2017-Nov-17 11:00N 47°37' W 122°31'0 0.0
2017-Nov-17 10:30N 47°37' W 122°31'0 0.0
2017-Nov-17 10:00N 47°37' W 122°31'0 0.0
2017-Nov-17 09:30N 47°37' W 122°31'0 0.0
2017-Nov-17 09:00N 47°37' W 122°31'0 0.0
2017-Nov-17 08:30N 47°37' W 122°31'0 0.0
2017-Nov-17 08:00N 47°37' W 122°31'0 0.0
2017-Nov-17 07:30N 47°37' W 122°31'0 0.0
2017-Nov-17 07:00N 47°37' W 122°31'0 0.2
2017-Nov-17 06:30N 47°37' W 122°30'713.6
2017-Nov-17 06:00N 47°36' W 122°20'0 0.0
2017-Nov-17 05:30N 47°36' W 122°20'612.5
2017-Nov-17 05:00N 47°37' W 122°30'0 0.9
2017-Nov-17 04:31N 47°36' W 122°29'612.1
2017-Nov-17 04:00N 47°36' W 122°20'2 3.7
2017-Nov-17 03:30N 47°37' W 122°23'510.3
2017-Nov-17 03:00N 47°37' W 122°31'611.6
2017-Nov-17 02:31N 47°36' W 122°22'1 2.2
2017-Nov-17 02:00N 47°36' W 122°21'713.8
2017-Nov-17 01:30N 47°37' W 122°31'3 5.4
2017-Nov-17 01:01N 47°36' W 122°27'4 8.6
2017-Nov-17 00:30N 47°36' W 122°20'510.7
2017-Nov-17 00:00N 47°37' W 122°28'2 3.6
2017-Nov-16 23:30N 47°37' W 122°31'713.8
2017-Nov-16 23:00N 47°36' W 122°21'0 0.5
2017-Nov-16 22:30N 47°36' W 122°21'713.2
2017-Nov-16 22:00N 47°37' W 122°31'2 3.6
2017-Nov-16 21:30N 47°36' W 122°28'510.9
2017-Nov-16 21:01N 47°36' W 122°20'510.5
2017-Nov-16 20:31N 47°36' W 122°28'2 3.6
2017-Nov-16 20:00N 47°37' W 122°31'611.2
2017-Nov-16 19:30N 47°36' W 122°22'1 2.8
2017-Nov-16 19:01N 47°36' W 122°20'612.4
2017-Nov-16 18:30N 47°37' W 122°30'0 0.7
2017-Nov-16 18:01N 47°37' W 122°30'612.8
2017-Nov-16 17:31N 47°36' W 122°20'4 7.7
2017-Nov-16 17:00N 47°37' W 122°26'3 6.2
2017-Nov-16 16:30N 47°37' W 122°31'611.4
2017-Nov-16 16:00N 47°36' W 122°22'1 1.3
2017-Nov-16 15:30N 47°36' W 122°21'612.7
2017-Nov-16 15:01N 47°37' W 122°31'2 4.8
2017-Nov-16 14:30N 47°36' W 122°27'5 9.5
2017-Nov-16 14:00N 47°36' W 122°20'5 9.9
2017-Nov-16 13:30N 47°36' W 122°28'2 4.5
2017-Nov-16 13:00N 47°37' W 122°31'0 0.0
2017-Nov-16 12:30N 47°37' W 122°31'0 0.0
2017-Nov-16 12:00N 47°37' W 122°31'0 0.0
2017-Nov-16 11:30N 47°37' W 122°31'0 0.0
2017-Nov-16 11:00N 47°37' W 122°31'0 0.0
2017-Nov-16 10:30N 47°37' W 122°31'2 3.8
2017-Nov-16 10:00N 47°36' W 122°28'510.3
2017-Nov-16 09:30N 47°36' W 122°21'713.3
2017-Nov-16 09:00N 47°37' W 122°31'4 8.3
2017-Nov-16 08:30N 47°36' W 122°25'0 0.9
2017-Nov-16 08:01N 47°36' W 122°24'5 9.2
2017-Nov-16 07:30N 47°37' W 122°31'0 0.0
2017-Nov-16 07:00N 47°37' W 122°31'1 1.3
2017-Nov-16 06:31N 47°37' W 122°30'612.7
2017-Nov-16 06:00N 47°36' W 122°20'1 1.0
2017-Nov-16 05:30N 47°36' W 122°21'612.9
2017-Nov-16 05:01N 47°37' W 122°31'510.3
2017-Nov-16 04:31N 47°36' W 122°23'0 1.0
2017-Nov-16 04:01N 47°36' W 122°22'611.1
2017-Nov-16 03:31N 47°37' W 122°31'3 6.6
2017-Nov-16 03:01N 47°36' W 122°26'4 7.4
2017-Nov-16 02:30N 47°36' W 122°20'611.2
2017-Nov-16 02:00N 47°36' W 122°29'2 3.1
2017-Nov-16 01:30N 47°37' W 122°31'713.2
2017-Nov-16 01:00N 47°36' W 122°21'0 0.7
2017-Nov-16 00:30N 47°36' W 122°20'612.2
2017-Nov-16 00:01N 47°36' W 122°29'1 1.3
2017-Nov-15 23:31N 47°37' W 122°30'612.7
2017-Nov-15 23:00N 47°36' W 122°20'3 6.0
2017-Nov-15 22:31N 47°37' W 122°25'4 7.8
2017-Nov-15 22:00N 47°37' W 122°31'2 3.8
2017-Nov-15 21:30N 47°36' W 122°28'510.4
2017-Nov-15 21:00N 47°36' W 122°20'510.9
2017-Nov-15 20:30N 47°36' W 122°28'2 3.3
2017-Nov-15 20:00N 47°37' W 122°31'611.5
2017-Nov-15 19:31N 47°36' W 122°22'1 2.4
2017-Nov-15 19:00N 47°36' W 122°20'713.1
2017-Nov-15 18:30N 47°37' W 122°30'1 2.9
2017-Nov-15 18:00N 47°36' W 122°28'510.6
2017-Nov-15 17:30N 47°36' W 122°20'612.3
2017-Nov-15 17:00N 47°37' W 122°29'1 1.9
2017-Nov-15 16:30N 47°37' W 122°30'713.4
2017-Nov-15 16:00N 47°36' W 122°20'2 3.2
2017-Nov-15 15:31N 47°36' W 122°23'510.6
2017-Nov-15 15:00N 47°37' W 122°31'2 4.1
2017-Nov-15 14:30N 47°36' W 122°28'510.1
2017-Nov-15 14:01N 47°36' W 122°20'611.7
2017-Nov-15 13:31N 47°36' W 122°29'1 2.8
2017-Nov-15 13:00N 47°37' W 122°31'0 0.0
2017-Nov-15 12:30N 47°37' W 122°31'0 0.0
2017-Nov-15 12:00N 47°37' W 122°31'0 0.0
2017-Nov-15 11:31N 47°37' W 122°31'0 0.0
2017-Nov-15 11:00N 47°37' W 122°31'0 0.0
2017-Nov-15 10:31N 47°37' W 122°31'0 0.8
2017-Nov-15 10:01N 47°37' W 122°30'713.0
2017-Nov-15 09:30N 47°36' W 122°20'612.7
2017-Nov-15 09:01N 47°37' W 122°30'2 4.0
2017-Nov-15 08:30N 47°36' W 122°27'4 8.6
2017-Nov-15 08:00N 47°36' W 122°21'713.5
2017-Nov-15 07:30N 47°37' W 122°31'510.9
2017-Nov-15 07:01N 47°36' W 122°23'1 3.0
2017-Nov-15 06:30N 47°36' W 122°20'4 8.2
2017-Nov-15 06:01N 47°36' W 122°26'3 5.7
2017-Nov-15 05:30N 47°37' W 122°31'713.8
2017-Nov-15 05:00N 47°36' W 122°20'2 3.9
2017-Nov-15 04:31N 47°36' W 122°23'5 9.8
2017-Nov-15 04:00N 47°37' W 122°31'4 9.0
2017-Nov-15 03:30N 47°36' W 122°24'2 4.9
2017-Nov-15 03:00N 47°36' W 122°20'713.8
2017-Nov-15 02:31N 47°37' W 122°30'0 0.8
2017-Nov-15 02:01N 47°37' W 122°30'612.9
2017-Nov-15 01:30N 47°36' W 122°20'1 1.9
2017-Nov-15 01:00N 47°36' W 122°22'612.0
2017-Nov-15 00:30N 47°37' W 122°31'3 6.5
2017-Nov-15 00:00N 47°36' W 122°26'4 7.6
2017-Nov-14 23:30N 47°36' W 122°20'612.4
2017-Nov-14 23:00N 47°37' W 122°30'0 0.8
2017-Nov-14 22:30N 47°37' W 122°30'612.6
2017-Nov-14 22:00N 47°36' W 122°20'3 5.3
2017-Nov-14 21:31N 47°37' W 122°24'4 8.5
2017-Nov-14 21:00N 47°37' W 122°31'4 8.8
2017-Nov-14 20:30N 47°36' W 122°24'3 5.2
2017-Nov-14 20:00N 47°36' W 122°20'713.9
2017-Nov-14 19:30N 47°37' W 122°30'1 2.1
2017-Nov-14 19:01N 47°37' W 122°29'612.2
2017-Nov-14 18:30N 47°36' W 122°20'2 3.4
2017-Nov-14 18:00N 47°36' W 122°23'510.5
2017-Nov-14 17:31N 47°37' W 122°31'3 5.1
2017-Nov-14 17:01N 47°36' W 122°27'5 9.1
2017-Nov-14 16:31N 47°36' W 122°20'612.7
2017-Nov-14 16:01N 47°37' W 122°30'0 0.1
2017-Nov-14 15:31N 47°37' W 122°30'612.2
2017-Nov-14 15:00N 47°36' W 122°20'611.6
2017-Nov-14 14:30N 47°36' W 122°29'2 3.1
2017-Nov-14 14:00N 47°37' W 122°31'713.8
2017-Nov-14 13:31N 47°36' W 122°21'4 7.7
2017-Nov-14 13:01N 47°37' W 122°26'3 6.0
2017-Nov-14 12:31N 47°37' W 122°31'0 0.0
2017-Nov-14 12:00N 47°37' W 122°31'0 0.0
2017-Nov-14 11:30N 47°37' W 122°31'0 0.0
2017-Nov-14 11:00N 47°37' W 122°31'0 0.0
2017-Nov-14 10:30N 47°37' W 122°31'3 6.3
2017-Nov-14 10:00N 47°36' W 122°26'2 4.0
2017-Nov-14 09:30N 47°36' W 122°23'510.0
2017-Nov-14 09:00N 47°37' W 122°31'3 6.9
2017-Nov-14 08:30N 47°36' W 122°26'2 3.9
2017-Nov-14 08:01N 47°36' W 122°23'510.5
2017-Nov-14 07:31N 47°37' W 122°31'611.7
2017-Nov-14 07:01N 47°36' W 122°22'1 2.2
2017-Nov-14 06:30N 47°36' W 122°20'5 9.6
2017-Nov-14 06:01N 47°37' W 122°27'2 4.4
2017-Nov-14 05:30N 47°37' W 122°30'713.6
2017-Nov-14 05:00N 47°36' W 122°20'3 6.0
2017-Nov-14 04:30N 47°37' W 122°25'4 7.9
2017-Nov-14 04:01N 47°37' W 122°31'4 8.9
2017-Nov-14 03:30N 47°36' W 122°24'2 4.9
2017-Nov-14 03:00N 47°36' W 122°21'713.5
2017-Nov-14 02:31N 47°37' W 122°30'1 1.4
2017-Nov-14 02:00N 47°37' W 122°30'612.5
2017-Nov-14 01:30N 47°36' W 122°20'2 3.1
2017-Nov-14 01:01N 47°37' W 122°23'510.8
2017-Nov-14 00:31N 47°37' W 122°31'3 7.0
2017-Nov-14 00:01N 47°36' W 122°26'4 6.9
2017-Nov-13 23:30N 47°36' W 122°20'612.5
2017-Nov-13 23:00N 47°37' W 122°29'1 1.6
2017-Nov-13 22:31N 47°37' W 122°30'713.0
2017-Nov-13 22:00N 47°36' W 122°20'5 0.2
2017-Nov-13 02:00N 47°36' W 122°28'510.0
2017-Nov-13 01:31N 47°36' W 122°20'2 4.2
2017-Nov-13 01:00N 47°37' W 122°23'5 9.6
2017-Nov-13 00:30N 47°37' W 122°31'3 6.9
2017-Nov-13 00:00N 47°36' W 122°26'4 7.1
2017-Nov-12 23:30N 47°36' W 122°20'613.0
2017-Nov-12 23:01N 47°37' W 122°30'0 0.6
2017-Nov-12 22:31N 47°37' W 122°30'713.2
2017-Nov-12 22:00N 47°36' W 122°20'3 5.1
2017-Nov-12 21:30N 47°36' W 122°24'4 8.8
2017-Nov-12 21:00N 47°37' W 122°31'4 8.6
2017-Nov-12 20:30N 47°36' W 122°24'3 5.4
2017-Nov-12 20:00N 47°36' W 122°20'713.5
2017-Nov-12 19:30N 47°37' W 122°30'1 1.2
2017-Nov-12 19:01N 47°37' W 122°30'612.5
2017-Nov-12 18:30N 47°36' W 122°20'4 8.5
2017-Nov-12 18:00N 47°37' W 122°27'3 5.5
2017-Nov-12 17:30N 47°37' W 122°31'511.0
2017-Nov-12 17:00N 47°36' W 122°23'1 2.5
2017-Nov-12 16:30N 47°35' W 122°21'0 0.1
2017-Nov-12 16:00N 47°35' W 122°21'0 0.0
2017-Nov-12 15:30N 47°35' W 122°21'0 0.0
2017-Nov-12 15:00N 47°35' W 122°21'1 2.3
2017-Nov-12 14:30N 47°36' W 122°21'713.2
2017-Nov-12 14:01N 47°37' W 122°31'0 0.0
2017-Nov-12 13:31N 47°37' W 122°31'0 0.0
2017-Nov-12 13:01N 47°37' W 122°31'0 0.0
2017-Nov-12 12:31N 47°37' W 122°31'0 0.0
2017-Nov-12 12:00N 47°37' W 122°31'0 0.0
2017-Nov-12 11:30N 47°37' W 122°31'0 0.0
2017-Nov-12 11:01N 47°37' W 122°31'0 0.0
2017-Nov-12 10:31N 47°37' W 122°31'0 0.0
2017-Nov-12 10:00N 47°37' W 122°31'0 0.0
2017-Nov-12 09:31N 47°37' W 122°31'0 0.0
2017-Nov-12 09:01N 47°37' W 122°31'0 0.0
2017-Nov-12 08:31N 47°37' W 122°31'0 0.0
2017-Nov-12 08:01N 47°37' W 122°31'0 0.0
2017-Nov-12 07:31N 47°37' W 122°31'2 3.3
2017-Nov-12 07:00N 47°36' W 122°29'610.8
2017-Nov-12 06:30N 47°36' W 122°20'4 8.9
2017-Nov-12 06:01N 47°37' W 122°27'3 5.2
2017-Nov-12 05:31N 47°37' W 122°31'713.7
2017-Nov-12 05:00N 47°36' W 122°21'1 1.4
2017-Nov-12 04:31N 47°36' W 122°22'612.3
2017-Nov-12 04:01N 47°37' W 122°31'4 8.6
2017-Nov-12 03:31N 47°36' W 122°24'3 5.2
2017-Nov-12 03:00N 47°36' W 122°21'713.6
2017-Nov-12 02:30N 47°37' W 122°30'1 2.4
2017-Nov-12 02:01N 47°36' W 122°29'611.9
2017-Nov-12 01:30N 47°36' W 122°20'3 6.5
2017-Nov-12 01:01N 47°37' W 122°25'4 7.4
2017-Nov-12 00:30N 47°37' W 122°31'510.5
2017-Nov-12 00:00N 47°36' W 122°23'1 2.3
2017-Nov-11 23:30N 47°36' W 122°21'612.7
2017-Nov-11 23:00N 47°37' W 122°31'3 5.4
2017-Nov-11 22:31N 47°36' W 122°27'4 8.6
2017-Nov-11 22:00N 47°36' W 122°20'510.2
2017-Nov-11 21:31N 47°37' W 122°28'2 3.8
2017-Nov-11 21:00N 47°37' W 122°31'511.0
2017-Nov-11 20:30N 47°36' W 122°23'1 2.5
2017-Nov-11 20:00N 47°36' W 122°21'713.5
2017-Nov-11 19:31N 47°37' W 122°31'1 2.9
2017-Nov-11 19:01N 47°36' W 122°29'611.6
2017-Nov-11 18:30N 47°36' W 122°20'5 9.0
2017-Nov-11 18:00N 47°37' W 122°27'2 5.0
2017-Nov-11 17:30N 47°37' W 122°31'510.9
2017-Nov-11 17:00N 47°36' W 122°23'1 3.0
2017-Nov-11 16:30N 47°36' W 122°20'612.4
2017-Nov-11 16:01N 47°37' W 122°30'1 2.0
2017-Nov-11 15:30N 47°37' W 122°31'0 0.0
2017-Nov-11 15:00N 47°37' W 122°31'0 0.0
2017-Nov-11 14:30N 47°37' W 122°31'0 0.0
2017-Nov-11 14:00N 47°37' W 122°31'0 0.0
2017-Nov-11 13:30N 47°37' W 122°31'0 0.0
2017-Nov-11 13:00N 47°37' W 122°31'0 0.0
2017-Nov-11 12:30N 47°37' W 122°31'0 0.0
2017-Nov-11 12:00N 47°37' W 122°31'0 0.0
2017-Nov-11 11:30N 47°37' W 122°31'0 0.0
2017-Nov-11 11:00N 47°37' W 122°31'0 0.0
2017-Nov-11 10:30N 47°37' W 122°31'3 5.3
2017-Nov-11 10:01N 47°36' W 122°27'4 8.2
2017-Nov-11 09:30N 47°36' W 122°21'713.1
2017-Nov-11 09:00N 47°37' W 122°31'4 8.9
2017-Nov-11 08:30N 47°36' W 122°24'1 1.2
2017-Nov-11 08:00N 47°36' W 122°23'510.1
2017-Nov-11 07:30N 47°37' W 122°31'612.0
2017-Nov-11 07:01N 47°36' W 122°22'1 1.9
2017-Nov-11 06:30N 47°36' W 122°20'510.2
2017-Nov-11 06:01N 47°37' W 122°28'2 3.0
2017-Nov-11 05:31N 47°37' W 122°30'612.7
2017-Nov-11 05:00N 47°36' W 122°20'5 9.9
2017-Nov-11 04:31N 47°36' W 122°28'2 4.0
2017-Nov-11 04:00N 47°37' W 122°30'713.2
2017-Nov-11 03:30N 47°36' W 122°20'2 4.4
2017-Nov-11 03:00N 47°36' W 122°24'5 9.5
2017-Nov-11 02:30N 47°37' W 122°31'2 3.9
2017-Nov-11 02:00N 47°36' W 122°28'510.4
2017-Nov-11 01:30N 47°36' W 122°20'3 6.5
2017-Nov-11 01:00N 47°36' W 122°25'4 7.4
2017-Nov-11 00:30N 47°37' W 122°31'510.3
2017-Nov-11 00:00N 47°36' W 122°23'2 3.6
2017-Nov-10 23:30N 47°36' W 122°20'713.9
2017-Nov-10 23:00N 47°37' W 122°31'1 2.9
2017-Nov-10 22:31N 47°36' W 122°29'611.6
2017-Nov-10 22:00N 47°36' W 122°20'5 9.4
2017-Nov-10 21:30N 47°36' W 122°27'2 4.6
2017-Nov-10 21:00N 47°37' W 122°30'713.5
2017-Nov-10 20:30N 47°36' W 122°21'1 2.2
2017-Nov-10 20:00N 47°36' W 122°22'611.4
2017-Nov-10 19:31N 47°37' W 122°31'2 4.4
2017-Nov-10 19:01N 47°36' W 122°28'5 9.9
2017-Nov-10 18:31N 47°36' W 122°20'3 5.1
2017-Nov-10 18:01N 47°37' W 122°24'4 8.8
2017-Nov-10 17:30N 47°37' W 122°31'2 4.9
2017-Nov-10 17:01N 47°36' W 122°27'5 9.4
2017-Nov-10 16:30N 47°36' W 122°20'612.3
2017-Nov-10 16:00N 47°37' W 122°30'0 0.2
2017-Nov-10 15:30N 47°37' W 122°30'612.5
2017-Nov-10 15:01N 47°36' W 122°20'510.4
2017-Nov-10 14:30N 47°36' W 122°28'2 3.7
2017-Nov-10 14:00N 47°37' W 122°31'713.7
2017-Nov-10 13:30N 47°36' W 122°21'3 7.0
2017-Nov-10 13:01N 47°36' W 122°26'3 6.7
2017-Nov-10 12:30N 47°37' W 122°31'0 0.0
2017-Nov-10 12:01N 47°37' W 122°31'0 0.0
2017-Nov-10 11:31N 47°37' W 122°31'0 0.0
2017-Nov-10 11:01N 47°37' W 122°31'0 0.0
2017-Nov-10 10:31N 47°37' W 122°31'1 2.4
2017-Nov-10 10:01N 47°36' W 122°29'612.0
2017-Nov-10 09:30N 47°36' W 122°20'713.4
2017-Nov-10 09:00N 47°37' W 122°30'3 6.2
2017-Nov-10 08:30N 47°36' W 122°26'3 5.0
2017-Nov-10 08:00N 47°36' W 122°22'611.4
2017-Nov-10 07:30N 47°37' W 122°31'611.2
2017-Nov-10 07:01N 47°36' W 122°22'1 2.7
2017-Nov-10 06:30N 47°36' W 122°20'4 7.4
2017-Nov-10 06:01N 47°37' W 122°26'3 6.4
2017-Nov-10 05:30N 47°37' W 122°30'713.5
2017-Nov-10 05:00N 47°36' W 122°21'3 6.2
2017-Nov-10 04:31N 47°37' W 122°25'4 7.5
2017-Nov-10 04:01N 47°37' W 122°31'611.2
2017-Nov-10 03:30N 47°36' W 122°22'1 2.5
2017-Nov-10 03:00N 47°36' W 122°20'713.7
2017-Nov-10 02:30N 47°37' W 122°30'0 0.1
2017-Nov-10 02:00N 47°37' W 122°30'713.7
2017-Nov-10 01:30N 47°36' W 122°20'1 1.8
2017-Nov-10 01:01N 47°36' W 122°22'612.0
2017-Nov-10 00:30N 47°37' W 122°31'3 7.0
2017-Nov-10 00:00N 47°36' W 122°26'4 7.1
2017-Nov-09 23:30N 47°36' W 122°20'612.4
2017-Nov-09 23:00N 47°37' W 122°30'1 1.3
2017-Nov-09 22:31N 47°37' W 122°30'713.0
2017-Nov-09 22:00N 47°36' W 122°20'2 4.8
2017-Nov-09 21:30N 47°36' W 122°24'5 9.2
2017-Nov-09 21:01N 47°37' W 122°31'713.2
2017-Nov-09 20:30N 47°36' W 122°21'1 2.6
2017-Nov-09 20:00N 47°36' W 122°23'510.5
2017-Nov-09 19:30N 47°37' W 122°31'0 0.0
2017-Nov-09 19:00N 47°37' W 122°31'0 0.0
2017-Nov-09 18:30N 47°37' W 122°31'0 0.0
2017-Nov-09 18:00N 47°37' W 122°31'0 0.0
2017-Nov-09 17:31N 47°37' W 122°31'0 0.0
2017-Nov-09 17:00N 47°37' W 122°31'0 0.0
2017-Nov-09 16:30N 47°37' W 122°31'0 0.0
2017-Nov-09 16:00N 47°37' W 122°31'0 0.0
2017-Nov-09 15:30N 47°37' W 122°31'0 0.0
2017-Nov-09 15:00N 47°37' W 122°31'0 0.0
2017-Nov-09 14:30N 47°37' W 122°31'0 0.0
2017-Nov-09 14:00N 47°37' W 122°31'0 0.0
2017-Nov-09 13:30N 47°37' W 122°31'0 0.0
2017-Nov-09 13:00N 47°37' W 122°31'2 4.2
2017-Nov-09 12:31N 47°36' W 122°28'2 4.1
2017-Nov-09 12:00N 47°37' W 122°31'0 0.0
2017-Nov-09 11:31N 47°37' W 122°31'0 0.0
2017-Nov-09 11:00N 47°37' W 122°31'0 0.0
2017-Nov-09 10:30N 47°37' W 122°31'0 0.0
2017-Nov-09 10:01N 47°37' W 122°31'0 0.0
2017-Nov-09 09:30N 47°37' W 122°31'0 0.0
2017-Nov-09 09:01N 47°37' W 122°31'0 0.0
2017-Nov-09 08:31N 47°37' W 122°31'0 0.0
2017-Nov-09 08:01N 47°37' W 122°31'0 0.0
2017-Nov-09 07:30N 47°37' W 122°31'0 0.0
2017-Nov-09 07:01N 47°37' W 122°31'0 0.0
2017-Nov-09 06:30N 47°37' W 122°31'0 0.0
2017-Nov-09 06:01N 47°37' W 122°31'0 0.0
2017-Nov-09 05:30N 47°37' W 122°31'0 0.0
2017-Nov-09 05:01N 47°37' W 122°31'0 0.0
2017-Nov-09 04:31N 47°37' W 122°31'0 0.0
2017-Nov-09 04:01N 47°37' W 122°31'0 0.0
2017-Nov-09 03:31N 47°37' W 122°31'0 0.0
2017-Nov-09 03:01N 47°37' W 122°31'0 0.0
2017-Nov-09 02:31N 47°37' W 122°31'0 0.0
2017-Nov-09 02:00N 47°37' W 122°31'0 0.0
2017-Nov-09 01:30N 47°37' W 122°31'0 0.0
2017-Nov-09 01:01N 47°37' W 122°31'0 0.0
2017-Nov-09 00:30N 47°37' W 122°31'0 0.0
2017-Nov-09 00:00N 47°37' W 122°31'0 0.0
2017-Nov-08 23:30N 47°37' W 122°31'0 0.0
2017-Nov-08 23:01N 47°37' W 122°31'0 0.0
2017-Nov-08 22:31N 47°37' W 122°31'0 0.0
2017-Nov-08 22:00N 47°37' W 122°31'0 0.0
2017-Nov-08 21:30N 47°37' W 122°31'0 0.0
2017-Nov-08 21:00N 47°37' W 122°31'0 0.0
2017-Nov-08 20:31N 47°37' W 122°31'0 0.0
2017-Nov-08 20:00N 47°37' W 122°31'0 0.0
2017-Nov-08 19:31N 47°37' W 122°31'0 0.0
2017-Nov-08 19:00N 47°37' W 122°31'0 0.0
2017-Nov-08 18:30N 47°37' W 122°31'0 0.0
2017-Nov-08 18:01N 47°37' W 122°31'0 0.0
2017-Nov-08 17:30N 47°37' W 122°31'0 0.0
2017-Nov-08 17:01N 47°37' W 122°31'0 0.0
2017-Nov-08 16:31N 47°37' W 122°31'0 0.0
2017-Nov-08 16:01N 47°37' W 122°31'0 0.0
2017-Nov-08 15:30N 47°37' W 122°31'0 0.0
2017-Nov-08 15:01N 47°37' W 122°31'0 0.0
2017-Nov-08 14:31N 47°37' W 122°31'0 0.0
2017-Nov-08 14:01N 47°37' W 122°31'0 0.0
2017-Nov-08 13:30N 47°37' W 122°31'0 0.0
2017-Nov-08 13:01N 47°37' W 122°31'0 0.0
2017-Nov-08 12:31N 47°37' W 122°31'0 0.0
2017-Nov-08 12:00N 47°37' W 122°31'0 0.0
2017-Nov-08 11:31N 47°37' W 122°31'0 0.0
2017-Nov-08 11:01N 47°37' W 122°31'0 0.0
2017-Nov-08 10:30N 47°37' W 122°31'0 0.0
2017-Nov-08 10:01N 47°37' W 122°31'0 0.0
2017-Nov-08 09:30N 47°37' W 122°31'0 0.0
2017-Nov-08 09:01N 47°37' W 122°31'0 0.0
2017-Nov-08 08:30N 47°37' W 122°31'0 0.0
2017-Nov-08 08:01N 47°37' W 122°31'0 0.0
2017-Nov-08 07:31N 47°37' W 122°31'0 0.0
2017-Nov-08 07:01N 47°37' W 122°31'0 0.0
2017-Nov-08 06:31N 47°37' W 122°31'0 0.0
2017-Nov-08 06:01N 47°37' W 122°31'0 0.0
2017-Nov-08 05:31N 47°37' W 122°31'0 0.0
2017-Nov-08 05:00N 47°37' W 122°31'0 0.0
2017-Nov-08 04:30N 47°37' W 122°31'0 0.0
2017-Nov-08 04:01N 47°37' W 122°31'0 0.0
2017-Nov-08 03:31N 47°37' W 122°31'0 0.0
2017-Nov-08 03:00N 47°37' W 122°31'  

Dump ship's entire track history